DLH6LF EDDF-LPMA
Flight info
| Callsign | DLH6LF |
|---|---|
| Flight time | 3h 54m |
| Altitude | 35000 |
| Route | SOBRA2L/18 SOBRA Y180 DIK UN857 TOLVU DCT RAPOR DCT GIMER DCT ESTOC UT300 PON UN872 GODIX/N0438F310 UN872 DIDAK/N0446F350 UN872 ERIGA UN741 AZFIC DCT LOTEE DCT AGADO/N0451F370 DCT LIDRO |
| Aircraft | A319/M-SDE3FGHIRWY/LB1 |
Departure
| Time | 2026-05-07 13:49 |
|---|---|
| Airport | Frankfurt Main Airport (EDDF) |
Arrival
| Time | 2026-05-07 17:43 |
|---|---|
| Airport | Cristiano Ronaldo International Airport (LPMA) |
| Time | Latitude | Longitude | Altitude | Speed | Heading |
|---|---|---|---|---|---|
| 2026-05-07 12:57 | 50.04649 | 8.55941 | 356 ft | 0 kts | 340° |
| 2026-05-07 13:36 | 50.04631 | 8.55951 | 365 ft | 4 kts | 339° |
| 2026-05-07 13:37 | 50.04606 | 8.55965 | 364 ft | 2 kts | 341° |
| 2026-05-07 13:37 | 50.04585 | 8.55979 | 360 ft | 4 kts | 321° |
| 2026-05-07 13:37 | 50.04571 | 8.56011 | 360 ft | 4 kts | 274° |
| 2026-05-07 13:37 | 50.04574 | 8.56052 | 360 ft | 4 kts | 250° |
| 2026-05-07 13:38 | 50.04577 | 8.56062 | 358 ft | 0 kts | 250° |
| 2026-05-07 13:40 | 50.04576 | 8.56060 | 359 ft | 1 kts | 250° |
| 2026-05-07 13:40 | 50.04574 | 8.56049 | 360 ft | 1 kts | 250° |
| 2026-05-07 13:40 | 50.04569 | 8.56030 | 362 ft | 2 kts | 250° |
| 2026-05-07 13:40 | 50.04562 | 8.56000 | 359 ft | 4 kts | 246° |
| 2026-05-07 13:41 | 50.04534 | 8.55960 | 358 ft | 7 kts | 207° |
| 2026-05-07 13:41 | 50.04476 | 8.55931 | 356 ft | 10 kts | 198° |
| 2026-05-07 13:41 | 50.04399 | 8.55911 | 356 ft | 12 kts | 180° |
| 2026-05-07 13:41 | 50.04315 | 8.55947 | 356 ft | 13 kts | 158° |
| 2026-05-07 13:42 | 50.04234 | 8.55921 | 355 ft | 14 kts | 242° |
| 2026-05-07 13:42 | 50.04196 | 8.55758 | 358 ft | 18 kts | 250° |
| 2026-05-07 13:42 | 50.04148 | 8.55563 | 357 ft | 21 kts | 249° |
| 2026-05-07 13:42 | 50.04096 | 8.55349 | 357 ft | 21 kts | 249° |
| 2026-05-07 13:43 | 50.04048 | 8.55148 | 360 ft | 19 kts | 249° |
| 2026-05-07 13:43 | 50.04001 | 8.54954 | 355 ft | 19 kts | 250° |
| 2026-05-07 13:43 | 50.03955 | 8.54756 | 351 ft | 20 kts | 250° |
| 2026-05-07 13:43 | 50.03906 | 8.54548 | 352 ft | 21 kts | 249° |
| 2026-05-07 13:44 | 50.03846 | 8.54342 | 349 ft | 21 kts | 233° |
| 2026-05-07 13:44 | 50.03779 | 8.54142 | 350 ft | 21 kts | 250° |
| 2026-05-07 13:44 | 50.03729 | 8.53932 | 347 ft | 21 kts | 249° |
| 2026-05-07 13:44 | 50.03678 | 8.53719 | 349 ft | 21 kts | 249° |
| 2026-05-07 13:45 | 50.03627 | 8.53507 | 341 ft | 21 kts | 250° |
| 2026-05-07 13:45 | 50.03575 | 8.53293 | 336 ft | 21 kts | 249° |
| 2026-05-07 13:45 | 50.03523 | 8.53078 | 338 ft | 21 kts | 249° |
| 2026-05-07 13:45 | 50.03473 | 8.52870 | 333 ft | 19 kts | 247° |
| 2026-05-07 13:46 | 50.03435 | 8.52735 | 335 ft | 9 kts | 248° |
| 2026-05-07 13:46 | 50.03413 | 8.52644 | 334 ft | 9 kts | 253° |
| 2026-05-07 13:46 | 50.03380 | 8.52592 | 333 ft | 7 kts | 165° |
| 2026-05-07 13:46 | 50.03358 | 8.52595 | 334 ft | 0 kts | 180° |
| 2026-05-07 13:48 | 50.03355 | 8.52595 | 334 ft | 5 kts | 180° |
| 2026-05-07 13:48 | 50.03077 | 8.52596 | 335 ft | 74 kts | 179° |
| 2026-05-07 13:48 | 50.02365 | 8.52603 | 335 ft | 130 kts | 180° |
| 2026-05-07 13:48 | 50.01305 | 8.52615 | 419 ft | 165 kts | 180° |
| 2026-05-07 13:49 | 50.00167 | 8.52640 | 993 ft | 164 kts | 181° |
| 2026-05-07 13:49 | 49.99017 | 8.52677 | 1528 ft | 169 kts | 179° |
| 2026-05-07 13:49 | 49.97783 | 8.52761 | 1824 ft | 189 kts | 178° |
| 2026-05-07 13:49 | 49.96408 | 8.52863 | 2158 ft | 205 kts | 178° |
| 2026-05-07 13:50 | 49.94904 | 8.52964 | 2459 ft | 228 kts | 178° |
| 2026-05-07 13:50 | 49.93289 | 8.53065 | 3023 ft | 238 kts | 178° |
| 2026-05-07 13:50 | 49.91643 | 8.53175 | 3916 ft | 236 kts | 178° |
| 2026-05-07 13:50 | 49.89992 | 8.53294 | 4748 ft | 238 kts | 179° |
| 2026-05-07 13:51 | 49.88328 | 8.53415 | 5527 ft | 240 kts | 179° |
| 2026-05-07 13:51 | 49.86664 | 8.53116 | 6191 ft | 247 kts | 199° |
| 2026-05-07 13:51 | 49.84990 | 8.52207 | 6542 ft | 268 kts | 202° |
| 2026-05-07 13:51 | 49.83203 | 8.51186 | 7206 ft | 275 kts | 202° |
| 2026-05-07 13:52 | 49.81392 | 8.50147 | 7974 ft | 279 kts | 202° |
| 2026-05-07 13:52 | 49.79558 | 8.49104 | 8756 ft | 283 kts | 202° |
| 2026-05-07 13:52 | 49.77836 | 8.47706 | 9507 ft | 284 kts | 221° |
| 2026-05-07 13:52 | 49.76579 | 8.45370 | 10226 ft | 284 kts | 244° |
| 2026-05-07 13:53 | 49.75998 | 8.42379 | 10571 ft | 301 kts | 268° |
| 2026-05-07 13:53 | 49.76280 | 8.39071 | 10797 ft | 321 kts | 285° |
| 2026-05-07 13:53 | 49.76848 | 8.35712 | 11308 ft | 330 kts | 285° |
| 2026-05-07 13:53 | 49.77429 | 8.32233 | 11977 ft | 335 kts | 285° |
| 2026-05-07 13:54 | 49.78005 | 8.28713 | 12666 ft | 339 kts | 284° |
| 2026-05-07 13:54 | 49.78572 | 8.25194 | 12975 ft | 342 kts | 284° |
| 2026-05-07 13:54 | 49.79144 | 8.21616 | 13043 ft | 342 kts | 284° |
| 2026-05-07 13:54 | 49.79714 | 8.18037 | 13051 ft | 341 kts | 284° |
| 2026-05-07 13:55 | 49.80286 | 8.14445 | 13334 ft | 345 kts | 284° |
| 2026-05-07 13:55 | 49.80852 | 8.10876 | 14061 ft | 347 kts | 284° |
| 2026-05-07 13:55 | 49.81429 | 8.07223 | 14683 ft | 349 kts | 284° |
| 2026-05-07 13:55 | 49.82011 | 8.03544 | 15302 ft | 352 kts | 284° |
| 2026-05-07 13:56 | 49.82590 | 7.99888 | 15898 ft | 355 kts | 284° |
| 2026-05-07 13:56 | 49.83178 | 7.96154 | 16505 ft | 357 kts | 283° |
| 2026-05-07 13:56 | 49.83770 | 7.92383 | 17104 ft | 360 kts | 283° |
| 2026-05-07 13:56 | 49.84366 | 7.88587 | 17701 ft | 363 kts | 283° |
| 2026-05-07 13:57 | 49.84957 | 7.84811 | 18281 ft | 366 kts | 283° |
| 2026-05-07 13:57 | 49.85556 | 7.80952 | 18800 ft | 369 kts | 283° |
| 2026-05-07 13:57 | 49.86161 | 7.77062 | 19316 ft | 372 kts | 283° |
| 2026-05-07 13:57 | 49.86775 | 7.73144 | 19833 ft | 375 kts | 283° |
| 2026-05-07 13:58 | 49.87394 | 7.69241 | 20343 ft | 377 kts | 283° |
| 2026-05-07 13:58 | 49.88019 | 7.65276 | 20854 ft | 380 kts | 283° |
| 2026-05-07 13:58 | 49.88645 | 7.61260 | 21366 ft | 383 kts | 283° |
| 2026-05-07 13:58 | 49.89270 | 7.57217 | 21871 ft | 386 kts | 283° |
| 2026-05-07 13:59 | 49.89893 | 7.53151 | 22374 ft | 389 kts | 283° |
| 2026-05-07 13:59 | 49.90510 | 7.49109 | 22852 ft | 391 kts | 283° |
| 2026-05-07 13:59 | 49.91138 | 7.44981 | 23319 ft | 394 kts | 283° |
| 2026-05-07 13:59 | 49.91773 | 7.40814 | 23745 ft | 397 kts | 283° |
| 2026-05-07 14:00 | 49.92410 | 7.36632 | 24134 ft | 400 kts | 283° |
| 2026-05-07 14:00 | 49.93051 | 7.32416 | 24522 ft | 402 kts | 283° |
| 2026-05-07 14:00 | 49.93694 | 7.28178 | 24906 ft | 404 kts | 283° |
| 2026-05-07 14:00 | 49.94330 | 7.23968 | 25282 ft | 406 kts | 283° |
| 2026-05-07 14:01 | 49.94974 | 7.19688 | 25664 ft | 408 kts | 283° |
| 2026-05-07 14:01 | 49.95621 | 7.15374 | 26046 ft | 410 kts | 283° |
| 2026-05-07 14:01 | 49.96270 | 7.11045 | 26420 ft | 412 kts | 283° |
| 2026-05-07 14:01 | 49.96920 | 7.06702 | 26801 ft | 414 kts | 283° |
| 2026-05-07 14:02 | 49.97560 | 7.02399 | 27172 ft | 415 kts | 283° |
| 2026-05-07 14:02 | 49.98211 | 6.98004 | 27540 ft | 417 kts | 283° |
| 2026-05-07 14:02 | 49.98863 | 6.93573 | 27888 ft | 419 kts | 281° |
| 2026-05-07 14:02 | 49.99225 | 6.89068 | 28232 ft | 421 kts | 272° |
| 2026-05-07 14:03 | 49.99160 | 6.84562 | 28578 ft | 423 kts | 267° |
| 2026-05-07 14:03 | 49.99017 | 6.79978 | 28919 ft | 425 kts | 267° |
| 2026-05-07 14:03 | 49.98878 | 6.75348 | 29256 ft | 427 kts | 268° |
| 2026-05-07 14:03 | 49.98742 | 6.70715 | 29577 ft | 429 kts | 268° |
| 2026-05-07 14:04 | 49.98605 | 6.66131 | 29898 ft | 431 kts | 268° |
| 2026-05-07 14:04 | 49.98462 | 6.61464 | 30195 ft | 433 kts | 267° |
| 2026-05-07 14:04 | 49.98069 | 6.56808 | 30452 ft | 435 kts | 258° |
| 2026-05-07 14:04 | 49.97199 | 6.52272 | 30697 ft | 438 kts | 249° |
| 2026-05-07 14:05 | 49.95988 | 6.47924 | 30990 ft | 439 kts | 247° |
| 2026-05-07 14:05 | 49.94778 | 6.43637 | 31346 ft | 438 kts | 247° |
| 2026-05-07 14:05 | 49.93560 | 6.39300 | 31705 ft | 437 kts | 247° |
| 2026-05-07 14:05 | 49.92347 | 6.34965 | 32058 ft | 436 kts | 248° |
| 2026-05-07 14:06 | 49.91137 | 6.30650 | 32409 ft | 435 kts | 248° |
| 2026-05-07 14:06 | 49.89938 | 6.26388 | 32768 ft | 434 kts | 247° |
| 2026-05-07 14:06 | 49.88695 | 6.22104 | 33112 ft | 434 kts | 247° |
| 2026-05-07 14:06 | 49.87469 | 6.17829 | 33461 ft | 433 kts | 247° |
| 2026-05-07 14:07 | 49.86221 | 6.13651 | 33804 ft | 433 kts | 243° |
| 2026-05-07 14:07 | 49.84617 | 6.09703 | 34128 ft | 433 kts | 236° |
| 2026-05-07 14:07 | 49.82871 | 6.05896 | 34401 ft | 433 kts | 236° |
| 2026-05-07 14:07 | 49.81129 | 6.02094 | 34661 ft | 432 kts | 236° |
| 2026-05-07 14:08 | 49.79402 | 5.98331 | 34912 ft | 432 kts | 236° |
| 2026-05-07 14:08 | 49.77656 | 5.94540 | 35030 ft | 432 kts | 236° |
| 2026-05-07 14:08 | 49.75910 | 5.90757 | 35056 ft | 429 kts | 236° |
| 2026-05-07 14:09 | 49.73170 | 5.82659 | 35056 ft | 424 kts | 251° |
| 2026-05-07 14:09 | 49.71205 | 5.74104 | 35054 ft | 424 kts | 251° |
| 2026-05-07 14:10 | 49.69190 | 5.65531 | 35054 ft | 423 kts | 251° |
| 2026-05-07 14:10 | 49.67190 | 5.57032 | 35058 ft | 422 kts | 250° |
| 2026-05-07 14:11 | 49.65191 | 5.48541 | 35060 ft | 422 kts | 250° |
| 2026-05-07 14:11 | 49.63186 | 5.40019 | 35059 ft | 422 kts | 251° |
| 2026-05-07 14:12 | 49.61248 | 5.31533 | 35058 ft | 421 kts | 252° |
| 2026-05-07 14:12 | 49.59429 | 5.22925 | 35060 ft | 421 kts | 252° |
| 2026-05-07 14:13 | 49.57763 | 5.14275 | 35057 ft | 420 kts | 255° |
| 2026-05-07 14:13 | 49.56303 | 5.05612 | 35059 ft | 420 kts | 256° |
| 2026-05-07 14:14 | 49.54821 | 4.96902 | 35060 ft | 420 kts | 255° |
| 2026-05-07 14:14 | 49.53285 | 4.88262 | 35056 ft | 419 kts | 255° |
| 2026-05-07 14:15 | 49.51711 | 4.79601 | 35055 ft | 419 kts | 255° |
| 2026-05-07 14:15 | 49.50143 | 4.70989 | 35054 ft | 419 kts | 255° |
| 2026-05-07 14:16 | 49.48581 | 4.62371 | 35062 ft | 419 kts | 255° |
| 2026-05-07 14:16 | 49.47008 | 4.53727 | 35068 ft | 419 kts | 254° |
| 2026-05-07 14:17 | 49.45432 | 4.45149 | 35066 ft | 419 kts | 254° |
| 2026-05-07 14:17 | 49.43845 | 4.36501 | 35068 ft | 419 kts | 254° |
| 2026-05-07 14:18 | 49.42256 | 4.27931 | 35065 ft | 419 kts | 254° |
| 2026-05-07 14:18 | 49.40660 | 4.19369 | 35065 ft | 419 kts | 254° |
| 2026-05-07 14:19 | 49.39059 | 4.10766 | 35065 ft | 418 kts | 254° |
| 2026-05-07 14:19 | 49.37461 | 4.02222 | 35069 ft | 418 kts | 254° |
| 2026-05-07 14:20 | 49.35902 | 3.93608 | 35069 ft | 418 kts | 256° |
| 2026-05-07 14:20 | 49.34658 | 3.84941 | 35065 ft | 417 kts | 258° |
| 2026-05-07 14:21 | 49.33501 | 3.76199 | 35068 ft | 417 kts | 258° |
| 2026-05-07 14:21 | 49.32288 | 3.67546 | 35075 ft | 417 kts | 257° |
| 2026-05-07 14:22 | 49.31020 | 3.58844 | 35072 ft | 417 kts | 257° |
| 2026-05-07 14:22 | 49.29755 | 3.50206 | 35071 ft | 417 kts | 257° |
| 2026-05-07 14:23 | 49.28481 | 3.41530 | 35068 ft | 417 kts | 257° |
| 2026-05-07 14:23 | 49.27202 | 3.32908 | 35069 ft | 417 kts | 257° |
| 2026-05-07 14:24 | 49.25924 | 3.24241 | 35063 ft | 417 kts | 257° |
| 2026-05-07 14:24 | 49.24642 | 3.15659 | 35059 ft | 417 kts | 257° |
| 2026-05-07 14:25 | 49.23335 | 3.07011 | 35062 ft | 417 kts | 257° |
| 2026-05-07 14:25 | 49.22031 | 2.98367 | 35058 ft | 417 kts | 257° |
| 2026-05-07 14:26 | 49.20955 | 2.91231 | 35053 ft | 416 kts | 257° |
| 2026-05-07 14:26 | 49.20021 | 2.85045 | 35053 ft | 416 kts | 257° |
| 2026-05-07 14:27 | 49.18707 | 2.76467 | 35049 ft | 416 kts | 256° |
| 2026-05-07 14:27 | 49.17379 | 2.67884 | 35047 ft | 416 kts | 256° |
| 2026-05-07 14:28 | 49.16043 | 2.59267 | 35050 ft | 416 kts | 256° |
| 2026-05-07 14:28 | 49.14714 | 2.50679 | 35049 ft | 416 kts | 256° |
| 2026-05-07 14:29 | 49.13374 | 2.42103 | 35050 ft | 416 kts | 256° |
| 2026-05-07 14:29 | 49.12398 | 2.33369 | 35044 ft | 416 kts | 262° |
| 2026-05-07 14:30 | 49.11600 | 2.24656 | 35051 ft | 417 kts | 261° |
| 2026-05-07 14:30 | 49.10776 | 2.15877 | 35050 ft | 417 kts | 261° |
| 2026-05-07 14:31 | 49.09953 | 2.07153 | 35050 ft | 417 kts | 260° |
| 2026-05-07 14:31 | 49.08178 | 1.98775 | 35045 ft | 416 kts | 245° |
| 2026-05-07 14:32 | 49.05750 | 1.90793 | 35045 ft | 416 kts | 245° |
| 2026-05-07 14:32 | 49.03351 | 1.82817 | 35044 ft | 416 kts | 245° |
| 2026-05-07 14:33 | 49.00940 | 1.74780 | 35040 ft | 416 kts | 245° |
| 2026-05-07 14:33 | 48.98522 | 1.66817 | 35039 ft | 416 kts | 245° |
| 2026-05-07 14:34 | 48.96077 | 1.58822 | 35039 ft | 416 kts | 245° |
| 2026-05-07 14:34 | 48.94042 | 1.52174 | 35043 ft | 416 kts | 245° |
| 2026-05-07 14:35 | 48.91193 | 1.42870 | 35040 ft | 416 kts | 245° |
| 2026-05-07 14:35 | 48.89160 | 1.36227 | 35040 ft | 416 kts | 245° |
| 2026-05-07 14:36 | 48.86308 | 1.26938 | 35044 ft | 416 kts | 245° |
| 2026-05-07 14:36 | 48.84254 | 1.20304 | 35042 ft | 416 kts | 245° |
| 2026-05-07 14:37 | 48.81774 | 1.12335 | 35041 ft | 416 kts | 245° |
| 2026-05-07 14:37 | 48.78069 | 1.00456 | 35036 ft | 416 kts | 244° |
| 2026-05-07 14:38 | 48.75584 | 0.92507 | 35032 ft | 416 kts | 244° |
| 2026-05-07 14:38 | 48.72826 | 0.84841 | 35023 ft | 416 kts | 239° |
| 2026-05-07 14:39 | 48.69820 | 0.77386 | 35025 ft | 416 kts | 238° |
| 2026-05-07 14:39 | 48.66784 | 0.69904 | 35022 ft | 416 kts | 238° |
| 2026-05-07 14:40 | 48.63758 | 0.62476 | 35021 ft | 416 kts | 238° |
| 2026-05-07 14:40 | 48.60714 | 0.55011 | 35023 ft | 417 kts | 238° |
| 2026-05-07 14:41 | 48.57689 | 0.47601 | 35021 ft | 417 kts | 238° |
| 2026-05-07 14:41 | 48.54635 | 0.40150 | 35020 ft | 416 kts | 238° |
| 2026-05-07 14:42 | 48.51587 | 0.32734 | 35017 ft | 417 kts | 238° |
| 2026-05-07 14:42 | 48.48527 | 0.25303 | 35018 ft | 417 kts | 238° |
| 2026-05-07 14:43 | 48.45475 | 0.17925 | 35014 ft | 417 kts | 238° |
| 2026-05-07 14:43 | 48.42396 | 0.10498 | 35017 ft | 417 kts | 238° |
| 2026-05-07 14:44 | 48.39334 | 0.03127 | 35017 ft | 417 kts | 238° |
| 2026-05-07 14:44 | 48.36260 | -0.04225 | 35018 ft | 417 kts | 237° |
| 2026-05-07 14:45 | 48.32924 | -0.11366 | 35017 ft | 417 kts | 233° |
| 2026-05-07 14:45 | 48.29388 | -0.18284 | 35011 ft | 417 kts | 232° |
| 2026-05-07 14:46 | 48.25873 | -0.25165 | 35011 ft | 417 kts | 233° |
| 2026-05-07 14:46 | 48.22386 | -0.32056 | 35013 ft | 417 kts | 232° |
| 2026-05-07 14:47 | 48.18857 | -0.38967 | 35012 ft | 416 kts | 232° |
| 2026-05-07 14:47 | 48.15326 | -0.45857 | 35015 ft | 416 kts | 232° |
| 2026-05-07 14:48 | 48.11818 | -0.52699 | 35019 ft | 416 kts | 232° |
| 2026-05-07 14:48 | 48.08277 | -0.59571 | 35018 ft | 416 kts | 232° |
| 2026-05-07 14:49 | 48.04758 | -0.66386 | 35022 ft | 416 kts | 232° |
| 2026-05-07 14:49 | 48.01225 | -0.73223 | 35025 ft | 415 kts | 232° |
| 2026-05-07 14:50 | 47.97699 | -0.80024 | 35025 ft | 415 kts | 232° |
| 2026-05-07 14:50 | 47.94157 | -0.86846 | 35021 ft | 415 kts | 232° |
| 2026-05-07 14:51 | 47.90631 | -0.93602 | 35018 ft | 414 kts | 232° |
| 2026-05-07 14:51 | 47.87087 | -1.00386 | 35013 ft | 414 kts | 232° |
| 2026-05-07 14:52 | 47.83556 | -1.07124 | 35008 ft | 414 kts | 232° |
| 2026-05-07 14:52 | 47.80001 | -1.13901 | 34996 ft | 414 kts | 232° |
| 2026-05-07 14:53 | 47.76475 | -1.20607 | 34992 ft | 414 kts | 231° |
| 2026-05-07 14:53 | 47.72914 | -1.27356 | 34990 ft | 414 kts | 231° |
| 2026-05-07 14:54 | 47.69375 | -1.34056 | 34988 ft | 414 kts | 231° |
| 2026-05-07 14:54 | 47.65814 | -1.40782 | 34988 ft | 414 kts | 231° |
| 2026-05-07 14:55 | 47.62246 | -1.47485 | 34986 ft | 414 kts | 231° |
| 2026-05-07 14:55 | 47.58651 | -1.54103 | 34986 ft | 414 kts | 229° |
| 2026-05-07 14:56 | 47.54842 | -1.60437 | 34983 ft | 413 kts | 227° |
| 2026-05-07 14:56 | 47.50927 | -1.66703 | 34983 ft | 413 kts | 227° |
| 2026-05-07 14:57 | 47.47074 | -1.72953 | 34981 ft | 413 kts | 227° |
| 2026-05-07 14:57 | 47.43209 | -1.79289 | 34984 ft | 413 kts | 227° |
| 2026-05-07 14:58 | 47.39361 | -1.85596 | 34985 ft | 413 kts | 227° |
| 2026-05-07 14:58 | 47.35475 | -1.91779 | 34986 ft | 413 kts | 222° |
| 2026-05-07 14:59 | 47.30757 | -1.96591 | 34984 ft | 413 kts | 211° |
| 2026-05-07 14:59 | 47.25865 | -2.00953 | 34987 ft | 413 kts | 211° |
| 2026-05-07 15:00 | 47.20945 | -2.05347 | 34986 ft | 413 kts | 211° |
| 2026-05-07 15:00 | 47.16056 | -2.09718 | 34985 ft | 413 kts | 211° |
| 2026-05-07 15:01 | 47.11167 | -2.14072 | 34987 ft | 413 kts | 211° |
| 2026-05-07 15:01 | 47.06235 | -2.18447 | 34983 ft | 412 kts | 211° |
| 2026-05-07 15:02 | 47.01349 | -2.22767 | 34986 ft | 412 kts | 211° |
| 2026-05-07 15:02 | 46.96426 | -2.27119 | 34985 ft | 412 kts | 211° |
| 2026-05-07 15:03 | 46.91546 | -2.31426 | 34989 ft | 412 kts | 211° |
| 2026-05-07 15:03 | 46.86855 | -2.36228 | 34983 ft | 411 kts | 224° |
| 2026-05-07 15:04 | 46.83436 | -2.42855 | 34987 ft | 413 kts | 239° |
| 2026-05-07 15:04 | 46.80573 | -2.50154 | 34990 ft | 413 kts | 238° |
| 2026-05-07 15:05 | 46.77705 | -2.57381 | 34994 ft | 413 kts | 238° |
| 2026-05-07 15:05 | 46.74816 | -2.64654 | 34991 ft | 413 kts | 238° |
| 2026-05-07 15:06 | 46.71947 | -2.71859 | 34990 ft | 413 kts | 238° |
| 2026-05-07 15:06 | 46.69054 | -2.79100 | 34990 ft | 413 kts | 238° |
| 2026-05-07 15:07 | 46.66160 | -2.86350 | 34988 ft | 414 kts | 238° |
| 2026-05-07 15:07 | 46.63282 | -2.93556 | 34988 ft | 414 kts | 238° |
| 2026-05-07 15:08 | 46.60371 | -3.00798 | 34985 ft | 414 kts | 238° |
| 2026-05-07 15:08 | 46.57445 | -3.07986 | 34987 ft | 414 kts | 234° |
| 2026-05-07 15:09 | 46.53684 | -3.14288 | 34985 ft | 412 kts | 225° |
| 2026-05-07 15:09 | 46.49725 | -3.20254 | 34981 ft | 413 kts | 225° |
| 2026-05-07 15:10 | 46.45732 | -3.26272 | 34980 ft | 413 kts | 225° |
| 2026-05-07 15:10 | 46.41748 | -3.32244 | 34986 ft | 413 kts | 225° |
| 2026-05-07 15:11 | 46.37732 | -3.38247 | 34984 ft | 413 kts | 225° |
| 2026-05-07 15:11 | 46.33746 | -3.44209 | 34982 ft | 414 kts | 225° |
| 2026-05-07 15:12 | 46.29729 | -3.50191 | 34982 ft | 414 kts | 225° |
| 2026-05-07 15:12 | 46.25729 | -3.56146 | 34982 ft | 414 kts | 225° |
| 2026-05-07 15:13 | 46.21728 | -3.62080 | 34975 ft | 414 kts | 225° |
| 2026-05-07 15:13 | 46.17700 | -3.68041 | 34981 ft | 414 kts | 225° |
| 2026-05-07 15:14 | 46.13690 | -3.73972 | 34978 ft | 415 kts | 225° |
| 2026-05-07 15:14 | 46.09673 | -3.79903 | 34975 ft | 415 kts | 225° |
| 2026-05-07 15:15 | 46.05621 | -3.85844 | 34975 ft | 415 kts | 225° |
| 2026-05-07 15:15 | 46.01597 | -3.91754 | 34973 ft | 415 kts | 225° |
| 2026-05-07 15:16 | 45.97544 | -3.97696 | 34974 ft | 415 kts | 225° |
| 2026-05-07 15:16 | 45.93489 | -4.03629 | 34972 ft | 416 kts | 225° |
| 2026-05-07 15:17 | 45.89445 | -4.09515 | 34970 ft | 416 kts | 225° |
| 2026-05-07 15:17 | 45.85390 | -4.15408 | 34965 ft | 416 kts | 225° |
| 2026-05-07 15:18 | 45.81307 | -4.21340 | 34967 ft | 417 kts | 225° |
| 2026-05-07 15:18 | 45.77252 | -4.27222 | 34966 ft | 417 kts | 225° |
| 2026-05-07 15:19 | 45.73161 | -4.33121 | 34966 ft | 417 kts | 225° |
| 2026-05-07 15:19 | 45.69061 | -4.39015 | 34962 ft | 417 kts | 225° |
| 2026-05-07 15:20 | 45.64990 | -4.44882 | 34960 ft | 418 kts | 225° |
| 2026-05-07 15:20 | 45.60910 | -4.50755 | 34961 ft | 418 kts | 225° |
| 2026-05-07 15:21 | 45.56789 | -4.56655 | 34956 ft | 418 kts | 225° |
| 2026-05-07 15:21 | 45.52692 | -4.62509 | 34958 ft | 419 kts | 225° |
| 2026-05-07 15:22 | 45.48565 | -4.68399 | 34953 ft | 419 kts | 225° |
| 2026-05-07 15:22 | 45.44452 | -4.74242 | 34953 ft | 419 kts | 225° |
| 2026-05-07 15:23 | 45.40313 | -4.80115 | 34952 ft | 420 kts | 226° |
| 2026-05-07 15:23 | 45.36196 | -4.85966 | 34949 ft | 420 kts | 226° |
| 2026-05-07 15:24 | 45.32041 | -4.91848 | 34950 ft | 421 kts | 226° |
| 2026-05-07 15:24 | 45.27908 | -4.97674 | 34945 ft | 421 kts | 226° |
| 2026-05-07 15:25 | 45.23744 | -5.03540 | 34942 ft | 422 kts | 226° |
| 2026-05-07 15:25 | 45.19588 | -5.09369 | 34942 ft | 422 kts | 226° |
| 2026-05-07 15:26 | 45.15395 | -5.15223 | 34939 ft | 423 kts | 226° |
| 2026-05-07 15:26 | 45.11225 | -5.21057 | 34937 ft | 423 kts | 226° |
| 2026-05-07 15:27 | 45.07035 | -5.26920 | 34935 ft | 424 kts | 226° |
| 2026-05-07 15:27 | 45.02848 | -5.32752 | 34931 ft | 424 kts | 226° |
| 2026-05-07 15:28 | 44.98636 | -5.38604 | 34932 ft | 425 kts | 226° |
| 2026-05-07 15:28 | 44.94441 | -5.44421 | 34928 ft | 425 kts | 226° |
| 2026-05-07 15:29 | 44.90205 | -5.50281 | 34925 ft | 426 kts | 226° |
| 2026-05-07 15:29 | 44.85984 | -5.56108 | 34922 ft | 426 kts | 226° |
| 2026-05-07 15:30 | 44.81761 | -5.61923 | 34918 ft | 426 kts | 226° |
| 2026-05-07 15:30 | 44.77502 | -5.67772 | 34920 ft | 426 kts | 226° |
| 2026-05-07 15:31 | 44.73248 | -5.73607 | 34921 ft | 427 kts | 227° |
| 2026-05-07 15:31 | 44.69017 | -5.79407 | 34920 ft | 427 kts | 226° |
| 2026-05-07 15:32 | 44.64715 | -5.85190 | 34915 ft | 428 kts | 225° |
| 2026-05-07 15:32 | 44.60209 | -5.90596 | 34913 ft | 429 kts | 222° |
| 2026-05-07 15:33 | 44.55559 | -5.95881 | 34913 ft | 429 kts | 222° |
| 2026-05-07 15:33 | 44.50974 | -6.01159 | 34914 ft | 429 kts | 223° |
| 2026-05-07 15:34 | 44.46391 | -6.06527 | 34915 ft | 428 kts | 223° |
| 2026-05-07 15:34 | 44.41839 | -6.11857 | 34911 ft | 428 kts | 223° |
| 2026-05-07 15:35 | 44.37255 | -6.17212 | 34915 ft | 428 kts | 223° |
| 2026-05-07 15:35 | 44.32671 | -6.22555 | 34914 ft | 428 kts | 223° |
| 2026-05-07 15:36 | 44.28110 | -6.27840 | 34914 ft | 428 kts | 223° |
| 2026-05-07 15:36 | 44.23515 | -6.33159 | 34915 ft | 428 kts | 223° |
| 2026-05-07 15:37 | 44.18944 | -6.38447 | 34911 ft | 428 kts | 223° |
| 2026-05-07 15:37 | 44.14382 | -6.43707 | 34908 ft | 427 kts | 223° |
| 2026-05-07 15:38 | 44.09781 | -6.48996 | 34906 ft | 427 kts | 223° |
| 2026-05-07 15:38 | 44.05224 | -6.54226 | 34902 ft | 426 kts | 223° |
| 2026-05-07 15:39 | 44.00673 | -6.59440 | 34897 ft | 426 kts | 223° |
| 2026-05-07 15:39 | 43.96075 | -6.64696 | 34893 ft | 426 kts | 223° |
| 2026-05-07 15:40 | 43.91517 | -6.69889 | 34903 ft | 426 kts | 223° |
| 2026-05-07 15:40 | 43.86935 | -6.75105 | 34897 ft | 426 kts | 223° |
| 2026-05-07 15:41 | 43.82352 | -6.80322 | 34885 ft | 426 kts | 223° |
| 2026-05-07 15:41 | 43.77800 | -6.85489 | 34889 ft | 426 kts | 223° |
| 2026-05-07 15:42 | 43.73207 | -6.90687 | 34886 ft | 426 kts | 223° |
| 2026-05-07 15:42 | 43.68644 | -6.95833 | 34891 ft | 426 kts | 223° |
| 2026-05-07 15:43 | 43.64040 | -7.01033 | 34887 ft | 426 kts | 223° |
| 2026-05-07 15:43 | 43.59471 | -7.06185 | 34888 ft | 426 kts | 223° |
| 2026-05-07 15:44 | 43.54895 | -7.11324 | 34884 ft | 426 kts | 223° |
| 2026-05-07 15:44 | 43.50289 | -7.16475 | 34883 ft | 426 kts | 223° |
| 2026-05-07 15:45 | 43.45671 | -7.21629 | 34880 ft | 426 kts | 223° |
| 2026-05-07 15:45 | 43.41091 | -7.26740 | 34885 ft | 426 kts | 223° |
| 2026-05-07 15:46 | 43.34203 | -7.34408 | 34882 ft | 425 kts | 224° |
| 2026-05-07 15:47 | 43.29595 | -7.39521 | 34882 ft | 425 kts | 224° |
| 2026-05-07 15:47 | 43.25020 | -7.44584 | 34883 ft | 424 kts | 224° |
| 2026-05-07 15:48 | 43.20433 | -7.49664 | 34875 ft | 423 kts | 224° |
| 2026-05-07 15:48 | 43.15871 | -7.54706 | 34876 ft | 423 kts | 224° |
| 2026-05-07 15:49 | 43.11284 | -7.59752 | 34872 ft | 422 kts | 224° |
| 2026-05-07 15:49 | 43.06709 | -7.64779 | 34870 ft | 421 kts | 224° |
| 2026-05-07 15:50 | 43.02138 | -7.69790 | 34872 ft | 421 kts | 224° |
| 2026-05-07 15:50 | 42.97584 | -7.74770 | 34872 ft | 420 kts | 224° |
| 2026-05-07 15:51 | 42.93037 | -7.79746 | 34879 ft | 420 kts | 224° |
| 2026-05-07 15:51 | 42.88483 | -7.84728 | 34879 ft | 419 kts | 224° |
| 2026-05-07 15:52 | 42.83942 | -7.89665 | 34875 ft | 418 kts | 224° |
| 2026-05-07 15:52 | 42.79386 | -7.94607 | 34882 ft | 418 kts | 224° |
| 2026-05-07 15:53 | 42.74864 | -7.99505 | 34882 ft | 417 kts | 224° |
| 2026-05-07 15:53 | 42.70313 | -8.04428 | 34884 ft | 416 kts | 224° |
| 2026-05-07 15:54 | 42.65801 | -8.09313 | 34883 ft | 416 kts | 224° |
| 2026-05-07 15:54 | 42.61295 | -8.14179 | 34882 ft | 415 kts | 224° |
| 2026-05-07 15:55 | 42.56768 | -8.19041 | 34879 ft | 414 kts | 224° |
| 2026-05-07 15:55 | 42.52273 | -8.23859 | 34880 ft | 413 kts | 224° |
| 2026-05-07 15:56 | 42.47790 | -8.28665 | 34880 ft | 412 kts | 224° |
| 2026-05-07 15:56 | 42.43289 | -8.33485 | 34880 ft | 411 kts | 224° |
| 2026-05-07 15:57 | 42.38831 | -8.38249 | 34887 ft | 410 kts | 224° |
| 2026-05-07 15:57 | 42.35105 | -8.42227 | 34892 ft | 410 kts | 224° |
| 2026-05-07 15:58 | 42.30615 | -8.47013 | 34895 ft | 409 kts | 224° |
| 2026-05-07 15:58 | 42.26160 | -8.51732 | 34893 ft | 409 kts | 223° |
| 2026-05-07 15:59 | 42.21688 | -8.56470 | 34885 ft | 407 kts | 224° |
| 2026-05-07 15:59 | 42.17232 | -8.61194 | 34887 ft | 407 kts | 223° |
| 2026-05-07 16:00 | 42.12798 | -8.65885 | 34882 ft | 407 kts | 223° |
| 2026-05-07 16:00 | 42.08333 | -8.70596 | 34881 ft | 407 kts | 223° |
| 2026-05-07 16:01 | 42.03898 | -8.75265 | 34879 ft | 406 kts | 223° |
| 2026-05-07 16:01 | 41.99465 | -8.79924 | 34883 ft | 406 kts | 223° |
| 2026-05-07 16:02 | 41.94998 | -8.84598 | 34881 ft | 406 kts | 223° |
| 2026-05-07 16:02 | 41.90536 | -8.89258 | 34883 ft | 405 kts | 223° |
| 2026-05-07 16:03 | 41.86102 | -8.93868 | 34888 ft | 405 kts | 222° |
| 2026-05-07 16:03 | 41.81571 | -8.98374 | 34892 ft | 405 kts | 221° |
| 2026-05-07 16:04 | 41.77033 | -9.02781 | 34899 ft | 403 kts | 221° |
| 2026-05-07 16:04 | 41.72491 | -9.07209 | 34901 ft | 402 kts | 221° |
| 2026-05-07 16:05 | 41.67999 | -9.11613 | 34905 ft | 402 kts | 221° |
| 2026-05-07 16:05 | 41.63482 | -9.16026 | 34908 ft | 401 kts | 221° |
| 2026-05-07 16:06 | 41.58995 | -9.20406 | 34907 ft | 401 kts | 220° |
| 2026-05-07 16:06 | 41.54487 | -9.24808 | 34905 ft | 400 kts | 220° |
| 2026-05-07 16:07 | 41.50008 | -9.29171 | 34905 ft | 400 kts | 220° |
| 2026-05-07 16:07 | 41.45499 | -9.33548 | 34900 ft | 400 kts | 220° |
| 2026-05-07 16:08 | 41.41026 | -9.37886 | 34901 ft | 399 kts | 220° |
| 2026-05-07 16:08 | 41.36532 | -9.42247 | 34901 ft | 399 kts | 220° |
| 2026-05-07 16:09 | 41.32034 | -9.46597 | 34904 ft | 399 kts | 220° |
| 2026-05-07 16:09 | 41.27555 | -9.50897 | 34900 ft | 399 kts | 220° |
| 2026-05-07 16:10 | 41.23049 | -9.55235 | 34901 ft | 398 kts | 220° |
| 2026-05-07 16:10 | 41.18583 | -9.59532 | 34904 ft | 398 kts | 220° |
| 2026-05-07 16:11 | 41.14086 | -9.63843 | 34903 ft | 398 kts | 220° |
| 2026-05-07 16:11 | 41.09586 | -9.68144 | 34905 ft | 398 kts | 220° |
| 2026-05-07 16:12 | 41.05099 | -9.72432 | 34905 ft | 398 kts | 219° |
| 2026-05-07 16:12 | 41.00611 | -9.76709 | 34907 ft | 398 kts | 219° |
| 2026-05-07 16:13 | 40.96131 | -9.80986 | 34908 ft | 398 kts | 219° |
| 2026-05-07 16:13 | 40.91622 | -9.85282 | 34905 ft | 398 kts | 219° |
| 2026-05-07 16:14 | 40.87143 | -9.89541 | 34908 ft | 398 kts | 219° |
| 2026-05-07 16:14 | 40.82630 | -9.93821 | 34910 ft | 398 kts | 219° |
| 2026-05-07 16:15 | 40.78137 | -9.98059 | 34915 ft | 398 kts | 219° |
| 2026-05-07 16:15 | 40.73659 | -10.02289 | 34911 ft | 398 kts | 219° |
| 2026-05-07 16:16 | 40.69142 | -10.06548 | 34918 ft | 398 kts | 219° |
| 2026-05-07 16:16 | 40.64657 | -10.10768 | 34919 ft | 397 kts | 219° |
| 2026-05-07 16:17 | 40.60157 | -10.15002 | 34918 ft | 397 kts | 219° |
| 2026-05-07 16:17 | 40.55675 | -10.19210 | 34917 ft | 397 kts | 219° |
| 2026-05-07 16:18 | 40.51186 | -10.23404 | 34920 ft | 397 kts | 219° |
| 2026-05-07 16:18 | 40.46682 | -10.27614 | 34916 ft | 397 kts | 219° |
| 2026-05-07 16:19 | 40.42220 | -10.31793 | 34918 ft | 396 kts | 219° |
| 2026-05-07 16:19 | 40.37710 | -10.35989 | 34919 ft | 396 kts | 219° |
| 2026-05-07 16:20 | 40.33231 | -10.40150 | 34919 ft | 396 kts | 219° |
| 2026-05-07 16:20 | 40.28718 | -10.44349 | 34903 ft | 399 kts | 219° |
| 2026-05-07 16:21 | 40.24199 | -10.48553 | 34909 ft | 401 kts | 219° |
| 2026-05-07 16:21 | 40.19627 | -10.52793 | 34909 ft | 402 kts | 219° |
| 2026-05-07 16:22 | 40.15074 | -10.56992 | 34911 ft | 403 kts | 218° |
| 2026-05-07 16:22 | 40.10478 | -10.61215 | 34907 ft | 403 kts | 218° |
| 2026-05-07 16:23 | 40.05903 | -10.65425 | 34905 ft | 406 kts | 218° |
| 2026-05-07 16:23 | 40.01275 | -10.69692 | 34905 ft | 407 kts | 218° |
| 2026-05-07 16:24 | 39.96662 | -10.73934 | 34913 ft | 408 kts | 218° |
| 2026-05-07 16:24 | 39.92017 | -10.78228 | 34911 ft | 409 kts | 218° |
| 2026-05-07 16:25 | 39.87376 | -10.82494 | 34916 ft | 410 kts | 218° |
| 2026-05-07 16:25 | 39.82700 | -10.86762 | 34916 ft | 410 kts | 218° |
| 2026-05-07 16:26 | 39.78040 | -10.90997 | 34924 ft | 410 kts | 218° |
| 2026-05-07 16:26 | 39.73352 | -10.95255 | 34921 ft | 410 kts | 218° |
| 2026-05-07 16:27 | 39.68702 | -10.99480 | 34922 ft | 410 kts | 218° |
| 2026-05-07 16:27 | 39.64019 | -11.03734 | 34921 ft | 410 kts | 218° |
| 2026-05-07 16:28 | 39.59354 | -11.07967 | 35077 ft | 413 kts | 218° |
| 2026-05-07 16:28 | 39.56993 | -11.10109 | 35347 ft | 413 kts | 218° |
| 2026-05-07 16:28 | 39.54632 | -11.12241 | 35618 ft | 412 kts | 218° |
| 2026-05-07 16:28 | 39.52280 | -11.14362 | 35894 ft | 412 kts | 218° |
| 2026-05-07 16:29 | 39.49925 | -11.16481 | 36141 ft | 411 kts | 218° |
| 2026-05-07 16:29 | 39.47605 | -11.18571 | 36392 ft | 411 kts | 218° |
| 2026-05-07 16:29 | 39.45258 | -11.20688 | 36641 ft | 410 kts | 218° |
| 2026-05-07 16:29 | 39.42916 | -11.22799 | 36875 ft | 410 kts | 218° |
| 2026-05-07 16:30 | 39.40570 | -11.24908 | 36941 ft | 410 kts | 218° |
| 2026-05-07 16:30 | 39.35882 | -11.29119 | 36938 ft | 410 kts | 218° |
| 2026-05-07 16:31 | 39.31215 | -11.33291 | 36939 ft | 410 kts | 218° |
| 2026-05-07 16:31 | 39.26518 | -11.37501 | 36939 ft | 411 kts | 218° |
| 2026-05-07 16:32 | 39.21840 | -11.41684 | 36939 ft | 411 kts | 218° |
| 2026-05-07 16:32 | 39.17127 | -11.45887 | 36939 ft | 412 kts | 218° |
| 2026-05-07 16:33 | 39.12411 | -11.50092 | 36930 ft | 412 kts | 218° |
| 2026-05-07 16:33 | 39.07722 | -11.54274 | 36927 ft | 412 kts | 218° |
| 2026-05-07 16:34 | 39.02989 | -11.58475 | 36926 ft | 413 kts | 218° |
| 2026-05-07 16:34 | 38.98277 | -11.62645 | 36926 ft | 413 kts | 218° |
| 2026-05-07 16:35 | 38.93531 | -11.66839 | 36935 ft | 414 kts | 218° |
| 2026-05-07 16:35 | 38.88803 | -11.71012 | 36921 ft | 414 kts | 218° |
| 2026-05-07 16:36 | 38.84036 | -11.75218 | 36926 ft | 415 kts | 218° |
| 2026-05-07 16:36 | 38.79299 | -11.79394 | 36923 ft | 416 kts | 218° |
| 2026-05-07 16:37 | 38.74517 | -11.83599 | 36926 ft | 416 kts | 218° |
| 2026-05-07 16:37 | 38.69744 | -11.87774 | 36928 ft | 417 kts | 218° |
| 2026-05-07 16:38 | 38.64948 | -11.91968 | 36933 ft | 418 kts | 218° |
| 2026-05-07 16:38 | 38.60168 | -11.96153 | 36928 ft | 418 kts | 218° |
| 2026-05-07 16:39 | 38.55351 | -12.00365 | 36926 ft | 419 kts | 218° |
| 2026-05-07 16:39 | 38.50552 | -12.04555 | 36925 ft | 420 kts | 218° |
| 2026-05-07 16:40 | 38.45723 | -12.08760 | 36928 ft | 420 kts | 218° |
| 2026-05-07 16:40 | 38.40909 | -12.12951 | 36928 ft | 421 kts | 218° |
| 2026-05-07 16:41 | 38.36049 | -12.17166 | 36923 ft | 422 kts | 218° |
| 2026-05-07 16:41 | 38.31174 | -12.21370 | 36924 ft | 423 kts | 218° |
| 2026-05-07 16:42 | 38.26330 | -12.25555 | 36926 ft | 423 kts | 218° |
| 2026-05-07 16:42 | 38.21444 | -12.29783 | 36928 ft | 424 kts | 218° |
| 2026-05-07 16:43 | 38.16582 | -12.33984 | 36927 ft | 425 kts | 218° |
| 2026-05-07 16:43 | 38.11666 | -12.38210 | 36928 ft | 426 kts | 218° |
| 2026-05-07 16:44 | 38.06777 | -12.42406 | 36925 ft | 427 kts | 218° |
| 2026-05-07 16:44 | 38.01874 | -12.46613 | 36928 ft | 427 kts | 218° |
| 2026-05-07 16:45 | 37.96927 | -12.50844 | 36930 ft | 428 kts | 218° |
| 2026-05-07 16:45 | 37.92009 | -12.55042 | 36930 ft | 429 kts | 218° |
| 2026-05-07 16:46 | 37.87045 | -12.59276 | 36927 ft | 430 kts | 218° |
| 2026-05-07 16:46 | 37.82097 | -12.63489 | 36929 ft | 430 kts | 218° |
| 2026-05-07 16:47 | 37.77116 | -12.67727 | 36931 ft | 431 kts | 218° |
| 2026-05-07 16:47 | 37.72167 | -12.71942 | 36931 ft | 431 kts | 218° |
| 2026-05-07 16:48 | 37.67171 | -12.76184 | 36932 ft | 432 kts | 218° |
| 2026-05-07 16:48 | 37.62201 | -12.80388 | 36930 ft | 433 kts | 218° |
| 2026-05-07 16:49 | 37.57171 | -12.84631 | 36934 ft | 434 kts | 218° |
| 2026-05-07 16:49 | 37.52163 | -12.88839 | 36933 ft | 434 kts | 218° |
| 2026-05-07 16:50 | 37.47167 | -12.93042 | 36933 ft | 435 kts | 218° |
| 2026-05-07 16:50 | 37.42121 | -12.97293 | 36932 ft | 436 kts | 218° |
| 2026-05-07 16:51 | 37.37101 | -13.01515 | 36935 ft | 437 kts | 218° |
| 2026-05-07 16:51 | 37.32033 | -13.05760 | 36934 ft | 438 kts | 218° |
| 2026-05-07 16:52 | 37.26945 | -13.10014 | 36932 ft | 439 kts | 218° |
| 2026-05-07 16:52 | 37.21876 | -13.14247 | 36933 ft | 440 kts | 218° |
| 2026-05-07 16:53 | 37.16805 | -13.18479 | 36931 ft | 441 kts | 219° |
| 2026-05-07 16:53 | 37.11685 | -13.22737 | 36937 ft | 442 kts | 219° |
| 2026-05-07 16:54 | 37.06544 | -13.27006 | 36935 ft | 443 kts | 219° |
| 2026-05-07 16:54 | 37.01434 | -13.31249 | 36938 ft | 444 kts | 219° |
| 2026-05-07 16:55 | 36.96271 | -13.35533 | 36938 ft | 445 kts | 219° |
| 2026-05-07 16:55 | 36.91127 | -13.39788 | 36940 ft | 446 kts | 219° |
| 2026-05-07 16:56 | 36.85943 | -13.44063 | 36938 ft | 446 kts | 219° |
| 2026-05-07 16:56 | 36.78183 | -13.50455 | 36932 ft | 448 kts | 219° |
| 2026-05-07 16:57 | 36.72983 | -13.54721 | 36935 ft | 449 kts | 219° |
| 2026-05-07 16:57 | 36.67761 | -13.59017 | 36935 ft | 450 kts | 219° |
| 2026-05-07 16:58 | 36.62552 | -13.63299 | 36938 ft | 451 kts | 219° |
| 2026-05-07 16:58 | 36.57286 | -13.67602 | 36938 ft | 452 kts | 219° |
| 2026-05-07 16:59 | 36.52032 | -13.71883 | 36936 ft | 453 kts | 219° |
| 2026-05-07 16:59 | 36.46792 | -13.76150 | 36944 ft | 454 kts | 220° |
| 2026-05-07 17:00 | 36.41489 | -13.80475 | 36941 ft | 455 kts | 220° |
| 2026-05-07 17:00 | 36.36201 | -13.84781 | 36936 ft | 456 kts | 220° |
| 2026-05-07 17:01 | 36.30908 | -13.89070 | 36937 ft | 457 kts | 220° |
| 2026-05-07 17:01 | 36.25562 | -13.93400 | 36934 ft | 458 kts | 220° |
| 2026-05-07 17:02 | 36.20243 | -13.97697 | 36939 ft | 459 kts | 220° |
| 2026-05-07 17:02 | 36.14873 | -14.02027 | 36936 ft | 460 kts | 220° |
| 2026-05-07 17:03 | 36.09523 | -14.06336 | 36936 ft | 461 kts | 220° |
| 2026-05-07 17:03 | 36.04130 | -14.10687 | 36936 ft | 461 kts | 221° |
| 2026-05-07 17:04 | 35.98766 | -14.15010 | 36965 ft | 464 kts | 220° |
| 2026-05-07 17:04 | 35.93334 | -14.19359 | 36970 ft | 464 kts | 220° |
| 2026-05-07 17:05 | 35.87947 | -14.23667 | 36964 ft | 464 kts | 220° |
| 2026-05-07 17:05 | 35.82524 | -14.28003 | 36967 ft | 464 kts | 220° |
| 2026-05-07 17:06 | 35.77133 | -14.32310 | 36960 ft | 464 kts | 220° |
| 2026-05-07 17:06 | 35.71707 | -14.36631 | 36960 ft | 464 kts | 220° |
| 2026-05-07 17:07 | 35.66306 | -14.40919 | 36966 ft | 463 kts | 220° |
| 2026-05-07 17:07 | 35.60873 | -14.45232 | 36964 ft | 463 kts | 219° |
| 2026-05-07 17:08 | 35.55479 | -14.49508 | 36963 ft | 463 kts | 220° |
| 2026-05-07 17:08 | 35.50067 | -14.53798 | 36967 ft | 462 kts | 219° |
| 2026-05-07 17:09 | 35.44681 | -14.58061 | 36974 ft | 462 kts | 219° |
| 2026-05-07 17:09 | 35.39291 | -14.62314 | 36974 ft | 462 kts | 219° |
| 2026-05-07 17:10 | 35.33868 | -14.66574 | 36967 ft | 461 kts | 219° |
| 2026-05-07 17:10 | 35.28483 | -14.70809 | 36973 ft | 461 kts | 219° |
| 2026-05-07 17:11 | 35.23109 | -14.75035 | 36972 ft | 461 kts | 219° |
| 2026-05-07 17:11 | 35.17707 | -14.79266 | 36974 ft | 461 kts | 219° |
| 2026-05-07 17:12 | 35.12324 | -14.83468 | 36976 ft | 460 kts | 219° |
| 2026-05-07 17:12 | 35.06931 | -14.87692 | 36975 ft | 460 kts | 219° |
| 2026-05-07 17:13 | 35.01543 | -14.91910 | 36975 ft | 460 kts | 219° |
| 2026-05-07 17:13 | 34.96177 | -14.96085 | 36979 ft | 460 kts | 219° |
| 2026-05-07 17:14 | 34.90769 | -15.00280 | 36982 ft | 459 kts | 219° |
| 2026-05-07 17:14 | 34.85410 | -15.04449 | 36984 ft | 459 kts | 219° |
| 2026-05-07 17:15 | 34.80017 | -15.08641 | 36982 ft | 459 kts | 219° |
| 2026-05-07 17:15 | 34.74649 | -15.12796 | 36986 ft | 458 kts | 219° |
| 2026-05-07 17:16 | 34.70174 | -15.16250 | 36986 ft | 458 kts | 219° |
| 2026-05-07 17:16 | 34.63904 | -15.21084 | 36996 ft | 458 kts | 218° |
| 2026-05-07 17:17 | 34.59431 | -15.24528 | 36992 ft | 457 kts | 218° |
| 2026-05-07 17:17 | 34.53169 | -15.29342 | 36995 ft | 457 kts | 218° |
| 2026-05-07 17:18 | 34.48704 | -15.32776 | 36991 ft | 456 kts | 218° |
| 2026-05-07 17:18 | 34.43337 | -15.36903 | 36996 ft | 456 kts | 218° |
| 2026-05-07 17:19 | 34.38011 | -15.40986 | 36994 ft | 455 kts | 218° |
| 2026-05-07 17:19 | 34.32645 | -15.45096 | 36991 ft | 455 kts | 218° |
| 2026-05-07 17:20 | 34.27287 | -15.49183 | 36991 ft | 455 kts | 218° |
| 2026-05-07 17:20 | 34.21971 | -15.53222 | 36627 ft | 455 kts | 218° |
| 2026-05-07 17:21 | 34.19261 | -15.55289 | 35568 ft | 464 kts | 217° |
| 2026-05-07 17:21 | 34.16514 | -15.57386 | 34699 ft | 467 kts | 217° |
| 2026-05-07 17:21 | 34.13788 | -15.59463 | 33907 ft | 469 kts | 217° |
| 2026-05-07 17:21 | 34.11008 | -15.61576 | 32869 ft | 473 kts | 217° |
| 2026-05-07 17:22 | 34.08213 | -15.63695 | 31850 ft | 475 kts | 217° |
| 2026-05-07 17:22 | 34.05379 | -15.65843 | 30759 ft | 482 kts | 217° |
| 2026-05-07 17:22 | 34.02573 | -15.67965 | 29953 ft | 481 kts | 217° |
| 2026-05-07 17:22 | 33.99747 | -15.70098 | 29251 ft | 475 kts | 217° |
| 2026-05-07 17:23 | 33.96960 | -15.72198 | 28565 ft | 469 kts | 217° |
| 2026-05-07 17:23 | 33.94204 | -15.74278 | 27910 ft | 463 kts | 217° |
| 2026-05-07 17:23 | 33.91487 | -15.76330 | 27261 ft | 457 kts | 217° |
| 2026-05-07 17:23 | 33.88837 | -15.78333 | 26631 ft | 453 kts | 217° |
| 2026-05-07 17:24 | 33.86179 | -15.80341 | 26121 ft | 446 kts | 217° |
| 2026-05-07 17:24 | 33.83594 | -15.82287 | 25994 ft | 430 kts | 217° |
| 2026-05-07 17:24 | 33.81095 | -15.84164 | 25865 ft | 416 kts | 217° |
| 2026-05-07 17:24 | 33.78710 | -15.85958 | 25746 ft | 401 kts | 217° |
| 2026-05-07 17:25 | 33.76387 | -15.87704 | 25584 ft | 386 kts | 217° |
| 2026-05-07 17:25 | 33.74133 | -15.89397 | 25190 ft | 378 kts | 217° |
| 2026-05-07 17:25 | 33.71910 | -15.91070 | 24675 ft | 374 kts | 217° |
| 2026-05-07 17:25 | 33.69713 | -15.92725 | 24162 ft | 371 kts | 217° |
| 2026-05-07 17:26 | 33.67555 | -15.94347 | 23645 ft | 369 kts | 217° |
| 2026-05-07 17:26 | 33.65390 | -15.95979 | 23063 ft | 366 kts | 218° |
| 2026-05-07 17:26 | 33.63246 | -15.97620 | 22502 ft | 362 kts | 218° |
| 2026-05-07 17:26 | 33.61139 | -15.99246 | 21974 ft | 358 kts | 218° |
| 2026-05-07 17:27 | 33.59078 | -16.00838 | 21483 ft | 354 kts | 218° |
| 2026-05-07 17:27 | 33.57015 | -16.02427 | 20983 ft | 350 kts | 218° |
| 2026-05-07 17:27 | 33.54964 | -16.04001 | 20491 ft | 346 kts | 218° |
| 2026-05-07 17:27 | 33.52944 | -16.05549 | 20012 ft | 343 kts | 218° |
| 2026-05-07 17:28 | 33.50971 | -16.07060 | 19561 ft | 339 kts | 218° |
| 2026-05-07 17:28 | 33.48987 | -16.08578 | 19099 ft | 336 kts | 218° |
| 2026-05-07 17:28 | 33.47027 | -16.10077 | 18666 ft | 332 kts | 218° |
| 2026-05-07 17:28 | 33.45086 | -16.11560 | 18223 ft | 329 kts | 218° |
| 2026-05-07 17:29 | 33.43187 | -16.13012 | 17724 ft | 326 kts | 218° |
| 2026-05-07 17:29 | 33.41273 | -16.14473 | 17235 ft | 323 kts | 218° |
| 2026-05-07 17:29 | 33.39384 | -16.15913 | 16752 ft | 321 kts | 218° |
| 2026-05-07 17:29 | 33.37528 | -16.17327 | 16293 ft | 318 kts | 218° |
| 2026-05-07 17:30 | 33.35668 | -16.18743 | 15839 ft | 316 kts | 217° |
| 2026-05-07 17:30 | 33.33819 | -16.20151 | 15394 ft | 314 kts | 217° |
| 2026-05-07 17:30 | 33.31977 | -16.21551 | 14955 ft | 312 kts | 217° |
| 2026-05-07 17:30 | 33.30154 | -16.22935 | 14530 ft | 309 kts | 217° |
| 2026-05-07 17:31 | 33.28339 | -16.24317 | 14110 ft | 307 kts | 217° |
| 2026-05-07 17:31 | 33.26562 | -16.25672 | 13686 ft | 306 kts | 217° |
| 2026-05-07 17:31 | 33.24771 | -16.27035 | 13207 ft | 304 kts | 217° |
| 2026-05-07 17:31 | 33.22992 | -16.28388 | 12746 ft | 301 kts | 217° |
| 2026-05-07 17:32 | 33.21221 | -16.29734 | 12186 ft | 302 kts | 217° |
| 2026-05-07 17:32 | 33.19431 | -16.31093 | 11357 ft | 313 kts | 216° |
| 2026-05-07 17:32 | 33.17618 | -16.32465 | 11110 ft | 301 kts | 216° |
| 2026-05-07 17:32 | 33.15882 | -16.33775 | 10968 ft | 288 kts | 216° |
| 2026-05-07 17:33 | 33.14222 | -16.35025 | 10841 ft | 274 kts | 216° |
| 2026-05-07 17:33 | 33.12670 | -16.36195 | 10693 ft | 262 kts | 217° |
| 2026-05-07 17:33 | 33.11145 | -16.37349 | 10386 ft | 257 kts | 217° |
| 2026-05-07 17:33 | 33.09643 | -16.38487 | 10032 ft | 255 kts | 217° |
| 2026-05-07 17:34 | 33.08148 | -16.39621 | 9638 ft | 253 kts | 217° |
| 2026-05-07 17:34 | 33.06686 | -16.40730 | 9232 ft | 251 kts | 216° |
| 2026-05-07 17:34 | 33.05211 | -16.41849 | 8809 ft | 249 kts | 216° |
| 2026-05-07 17:34 | 33.03749 | -16.42955 | 8395 ft | 247 kts | 216° |
| 2026-05-07 17:35 | 33.02301 | -16.44047 | 7985 ft | 245 kts | 216° |
| 2026-05-07 17:35 | 33.00863 | -16.45132 | 7536 ft | 245 kts | 216° |
| 2026-05-07 17:35 | 32.99438 | -16.46211 | 7081 ft | 245 kts | 216° |
| 2026-05-07 17:35 | 32.98008 | -16.47289 | 6805 ft | 238 kts | 215° |
| 2026-05-07 17:36 | 32.96636 | -16.48318 | 6674 ft | 226 kts | 216° |
| 2026-05-07 17:36 | 32.95351 | -16.49281 | 6555 ft | 215 kts | 216° |
| 2026-05-07 17:36 | 32.94119 | -16.50205 | 6434 ft | 203 kts | 216° |
| 2026-05-07 17:36 | 32.92956 | -16.51099 | 6230 ft | 196 kts | 220° |
| 2026-05-07 17:37 | 32.91937 | -16.52149 | 5931 ft | 192 kts | 226° |
| 2026-05-07 17:37 | 32.90948 | -16.53218 | 5500 ft | 198 kts | 225° |
| 2026-05-07 17:37 | 32.89903 | -16.54338 | 5015 ft | 201 kts | 225° |
| 2026-05-07 17:37 | 32.88859 | -16.55452 | 4491 ft | 200 kts | 224° |
| 2026-05-07 17:38 | 32.87850 | -16.56524 | 4252 ft | 190 kts | 225° |
| 2026-05-07 17:38 | 32.86871 | -16.57567 | 4129 ft | 189 kts | 225° |
| 2026-05-07 17:38 | 32.85906 | -16.58596 | 4036 ft | 189 kts | 225° |
| 2026-05-07 17:38 | 32.84928 | -16.59639 | 3908 ft | 190 kts | 225° |
| 2026-05-07 17:39 | 32.83951 | -16.60681 | 3613 ft | 187 kts | 225° |
| 2026-05-07 17:39 | 32.82976 | -16.61719 | 3363 ft | 187 kts | 225° |
| 2026-05-07 17:39 | 32.82015 | -16.62744 | 3097 ft | 187 kts | 225° |
| 2026-05-07 17:39 | 32.81046 | -16.63778 | 2840 ft | 187 kts | 225° |
| 2026-05-07 17:40 | 32.80083 | -16.64807 | 2613 ft | 186 kts | 225° |
| 2026-05-07 17:40 | 32.79137 | -16.65820 | 2403 ft | 185 kts | 224° |
| 2026-05-07 17:40 | 32.78178 | -16.66844 | 2176 ft | 185 kts | 224° |
| 2026-05-07 17:40 | 32.77222 | -16.67869 | 1963 ft | 185 kts | 225° |
| 2026-05-07 17:41 | 32.76279 | -16.68897 | 1727 ft | 183 kts | 226° |
| 2026-05-07 17:41 | 32.75417 | -16.70008 | 1509 ft | 181 kts | 231° |
| 2026-05-07 17:41 | 32.74636 | -16.71098 | 1351 ft | 164 kts | 232° |
| 2026-05-07 17:41 | 32.73971 | -16.72092 | 1273 ft | 144 kts | 234° |
| 2026-05-07 17:42 | 32.73373 | -16.73006 | 1144 ft | 135 kts | 233° |
| 2026-05-07 17:42 | 32.72806 | -16.73884 | 953 ft | 133 kts | 229° |
| 2026-05-07 17:42 | 32.72172 | -16.74656 | 722 ft | 129 kts | 223° |
| 2026-05-07 17:42 | 32.71544 | -16.75385 | 496 ft | 123 kts | 224° |
| 2026-05-07 17:43 | 32.70939 | -16.76095 | 349 ft | 122 kts | 224° |
| 2026-05-07 17:43 | 32.70341 | -16.76798 | 201 ft | 115 kts | 223° |
| 2026-05-07 17:43 | 32.69884 | -16.77335 | 186 ft | 55 kts | 224° |
| 2026-05-07 17:43 | 32.69713 | -16.77532 | 181 ft | 30 kts | 224° |
| 2026-05-07 17:44 | 32.69566 | -16.77704 | 175 ft | 29 kts | 224° |
| 2026-05-07 17:44 | 32.69424 | -16.77869 | 171 ft | 28 kts | 224° |
| 2026-05-07 17:44 | 32.69291 | -16.77940 | 169 ft | 18 kts | 119° |
| 2026-05-07 17:44 | 32.69325 | -16.77815 | 169 ft | 15 kts | 46° |
| 2026-05-07 17:45 | 32.69339 | -16.77759 | 169 ft | 5 kts | 139° |
| 2026-05-07 17:45 | 32.69318 | -16.77738 | 169 ft | 1 kts | 139° |
| 2026-05-07 17:45 | 32.69312 | -16.77731 | 169 ft | 1 kts | 138° |
| 2026-05-07 17:45 | 32.69306 | -16.77724 | 169 ft | 0 kts | 138° |
| 2026-05-07 17:46 | 32.69305 | -16.77724 | 169 ft | 0 kts | 138° |